createdAt,value
2018-03-26T00:07:52.763Z,53.30
2018-03-26T00:17:55.341Z,53.30
2018-03-26T00:27:57.879Z,53.40
2018-03-26T00:38:00.382Z,53.40
2018-03-26T00:48:02.886Z,53.40
2018-03-26T00:58:06.172Z,53.50
2018-03-26T01:08:08.666Z,53.50
2018-03-26T01:18:11.941Z,53.60
2018-03-26T01:28:14.446Z,53.50
2018-03-26T01:38:16.967Z,53.60
2018-03-26T01:48:20.237Z,53.70
2018-03-26T01:58:22.754Z,53.70
2018-03-26T02:08:25.250Z,53.80
2018-03-26T02:18:27.751Z,53.80
2018-03-26T02:28:30.242Z,53.90
2018-03-26T02:38:32.744Z,53.90
2018-03-26T02:48:36.053Z,54.00
2018-03-26T02:58:38.550Z,54.00
2018-03-26T03:08:41.042Z,54.00
2018-03-26T03:18:44.303Z,54.10
2018-03-26T03:28:46.833Z,54.10
2018-03-26T03:38:49.326Z,54.40
2018-03-26T03:48:51.817Z,54.30
2018-03-26T03:58:54.314Z,54.40
2018-03-26T04:08:56.813Z,54.40
2018-03-26T04:19:00.080Z,54.60
2018-03-26T04:29:02.577Z,54.50
2018-03-26T04:39:05.144Z,54.50
2018-03-26T04:49:07.635Z,54.60
2018-03-26T04:59:13.042Z,54.60
2018-03-26T05:09:16.305Z,54.80
2018-03-26T05:19:18.801Z,54.70
2018-03-26T05:29:21.353Z,54.70
2018-03-26T05:39:24.619Z,55.10
2018-03-26T05:49:27.101Z,55.80
2018-03-26T05:59:29.591Z,55.20
2018-03-26T06:09:32.080Z,55.20
2018-03-26T06:19:35.350Z,56.00
2018-03-26T06:29:37.850Z,55.30
2018-03-26T06:39:41.216Z,56.20
2018-03-26T06:49:44.488Z,55.40
2018-03-26T06:59:46.973Z,56.10
2018-03-26T07:09:49.473Z,56.10
2018-03-26T07:19:51.957Z,56.10
2018-03-26T07:29:54.494Z,57.00
2018-03-26T07:39:56.998Z,56.00
2018-03-26T07:49:59.649Z,56.00
2018-03-26T08:00:02.137Z,56.40
2018-03-26T08:10:04.634Z,57.60
2018-03-26T08:20:07.121Z,57.00
2018-03-26T08:30:09.621Z,56.50
2018-03-26T08:40:12.111Z,56.40
2018-03-26T08:50:14.697Z,56.20
2018-03-26T09:00:17.137Z,56.30
2018-03-26T09:10:19.625Z,56.10
2018-03-26T09:20:22.118Z,56.40
2018-03-26T09:30:24.613Z,56.10
2018-03-26T09:40:27.564Z,55.60
2018-03-26T09:50:30.065Z,57.10
2018-03-26T10:00:38.297Z,56.70
2018-03-26T10:10:40.788Z,57.10
2018-03-26T10:20:43.282Z,56.40
2018-03-26T10:30:45.788Z,55.30
2018-03-26T10:40:48.273Z,56.40
2018-03-26T10:50:50.766Z,54.60
2018-03-26T11:00:53.266Z,55.30
2018-03-26T11:10:55.762Z,54.20
2018-03-26T11:20:58.257Z,51.70
2018-03-26T11:31:00.741Z,56.60
2018-03-26T11:41:04.001Z,54.50
2018-03-26T11:51:07.257Z,52.00
2018-03-26T12:01:09.758Z,52.00
2018-03-26T12:11:12.266Z,54.10
2018-03-26T12:21:14.757Z,52.50
2018-03-26T12:31:17.253Z,52.30
2018-03-26T12:41:20.521Z,48.70
2018-03-26T12:51:34.958Z,48.80
2018-03-26T13:01:49.265Z,50.20
2018-03-26T13:11:51.753Z,53.10
2018-03-26T13:21:54.250Z,46.80
2018-03-26T13:31:57.499Z,51.80
2018-03-26T13:42:00.753Z,46.90
2018-03-26T13:52:03.251Z,46.70
2018-03-26T14:02:05.735Z,48.20
2018-03-26T14:12:20.006Z,49.90
2018-03-26T14:22:23.262Z,51.80
2018-03-26T14:32:25.745Z,51.70
2018-03-26T14:42:28.225Z,46.40
2018-03-26T14:52:30.708Z,46.60
2018-03-26T15:02:33.197Z,45.90
2018-03-26T15:12:35.677Z,46.50
2018-03-26T15:22:38.933Z,48.10
2018-03-26T15:32:41.416Z,47.90
2018-03-26T15:42:43.898Z,46.70
2018-03-26T15:52:46.455Z,47.50
2018-03-26T16:02:54.564Z,47.30
2018-03-26T16:12:57.809Z,49.00
2018-03-26T16:23:00.301Z,48.90
2018-03-26T16:33:02.802Z,49.20
2018-03-26T16:43:05.292Z,49.00
2018-03-26T16:53:07.772Z,49.40
2018-03-26T17:03:10.265Z,49.70
2018-03-26T17:13:12.755Z,51.70
2018-03-26T17:23:15.242Z,51.60
2018-03-26T17:33:17.738Z,51.70
2018-03-26T17:43:20.220Z,52.30
2018-03-26T17:53:22.710Z,52.00
2018-03-26T18:03:25.218Z,52.30
2018-03-26T18:13:28.454Z,52.40
2018-03-26T18:23:30.941Z,52.30
2018-03-26T18:33:33.430Z,53.00
2018-03-26T18:43:35.985Z,53.60
2018-03-26T18:53:38.470Z,53.70
2018-03-26T19:03:40.961Z,53.70
2018-03-26T19:13:44.217Z,54.50
2018-03-26T19:23:47.233Z,53.90
2018-03-26T19:33:49.718Z,53.90
2018-03-26T19:43:53.057Z,53.70
2018-03-26T19:53:55.542Z,53.70
2018-03-26T20:03:58.033Z,53.80
2018-03-26T20:14:00.526Z,53.70
2018-03-26T20:24:03.781Z,53.90
2018-03-26T20:34:07.044Z,53.90
2018-03-26T20:44:09.534Z,53.80
2018-03-26T20:54:12.029Z,54.00
2018-03-26T21:04:14.520Z,53.90
2018-03-26T21:14:17.772Z,53.90
2018-03-26T21:24:20.277Z,53.70
2018-03-26T21:34:22.771Z,53.90
2018-03-26T21:44:25.266Z,53.80
2018-03-26T21:54:27.757Z,53.80
2018-03-26T22:04:31.023Z,53.90
2018-03-26T22:14:34.280Z,54.00
2018-03-26T22:24:36.769Z,54.00
2018-03-26T22:34:40.034Z,54.40
2018-03-26T22:44:43.357Z,54.20
2018-03-26T22:54:45.788Z,54.10
2018-03-26T23:04:49.065Z,55.10
2018-03-26T23:14:51.568Z,54.40
2018-03-26T23:24:54.828Z,54.30
2018-03-26T23:34:57.312Z,55.00
2018-03-26T23:44:59.806Z,55.40
2018-03-26T23:55:02.302Z,55.30
